Mercer County Airport
KBLF : rendu visible

Aérodrome :











RETROUVEZ-NOUS SUR...

 
LOGIN :

S'inscrire | Disclaimer

   EN    FR    IT 

 









Légende :    VFR   VFR Marginal   IFR   IFR Intensif   IFR Très Intensif
Visi : 
Plafond : 
>= 8 km
>= 3000ft
5 à 8 km
1000 à 3000 ft
1500m à 5 km
500 à 1000 ft
800 à 1500m
200 à 500 ft
< 800m
< 200 ft
Symboles :   Orages  Brouillard  Fortes neiges  Fortes précipitations  Vent > 20 kt






- Altitude de l'aérodrome : 2857 ft
- Code IATA : BLF


KBLF - Mercer County

DERNIER METAR :
  • 250452Z AUTO 17011G19KT 10SM CLR 05/M03 A3020 RMK AO2 SLP227 T00501033 401061022

METARs EXPIRÉS :
  • 250352Z AUTO 15013G21KT 100V180 10SM CLR 04/M02 A3019 RMK AO2 SLP224 T00441022
  • 250252Z AUTO 14011G23KT 100V160 10SM CLR 04/M02 A3021 RMK AO2 SLP234 T00441022 58003

TAF KBLF
Valide du 25 à 04h jusqu'au 26 à 00h UTC


250356Z 2504/2524 14011G23KT P6SM BKN250
FM250600 16007KT P6SM OVC200 WS020/20035KT
FM251600 19011G21KT P6SM BKN120
FM252200 19010G20KT P6SM OVC045
FIR KZID / Amérique du Nord



MET'MAP, la Météo Aéronautique d'un coup d'oeil ! - Copyright ORBIFLY Décembre 2007 - Disclaimer

ORBIFLY MET'MAP TEAM :

Programmation & Développement : Alexandra Zaïnal
Sur une idée originale de : Baudouin d'Aumeries
Assistance à la programmation : Marc-Olivier Méhu
Soutien technique & logistique : Manuel Goepfert

Contact : metmap@orbifly.com




SOURCES & CREDITS :

   NOAA       Earth
Advisory